createdAt,value
2019-04-07T00:00:40.992Z,12.52
2019-04-07T00:03:16.245Z,12.52
2019-04-07T00:05:51.625Z,12.49
2019-04-07T00:08:27.360Z,12.48
2019-04-07T00:11:02.990Z,12.45
2019-04-07T00:13:38.393Z,12.46
2019-04-07T00:16:13.609Z,12.46
2019-04-07T00:18:48.718Z,12.35
2019-04-07T00:21:24.072Z,12.36
2019-04-07T00:24:01.742Z,12.24
2019-04-07T00:26:35.911Z,12.19
2019-04-07T00:29:11.053Z,12.11
2019-04-07T00:31:46.125Z,12.10
2019-04-07T00:34:22.113Z,11.97
2019-04-07T00:36:57.263Z,12.05
2019-04-07T00:39:32.643Z,12.03
2019-04-07T00:42:08.157Z,11.89
2019-04-07T00:44:43.349Z,11.82
2019-04-07T00:47:18.604Z,11.78
2019-04-07T00:49:53.751Z,11.84
2019-04-07T00:52:29.536Z,11.84
2019-04-07T00:55:09.954Z,11.68
2019-04-07T00:57:45.625Z,11.67
2019-04-07T01:00:23.671Z,11.62
2019-04-07T01:02:59.385Z,11.44
2019-04-07T01:05:38.557Z,11.61
2019-04-07T01:08:11.823Z,11.52
2019-04-07T01:10:47.023Z,11.58
2019-04-07T01:13:22.147Z,11.54
2019-04-07T01:15:57.199Z,11.53
2019-04-07T01:18:35.549Z,11.55
2019-04-07T01:21:10.653Z,11.49
2019-04-07T01:23:45.631Z,11.58
2019-04-07T01:26:20.650Z,11.55
2019-04-07T01:28:55.650Z,11.56
2019-04-07T01:31:30.656Z,11.58
2019-04-07T01:34:05.920Z,11.47
2019-04-07T01:36:41.314Z,11.48
2019-04-07T01:39:16.870Z,11.39
2019-04-07T01:42:07.942Z,11.35
2019-04-07T01:45:11.523Z,11.40
2019-04-07T01:48:06.098Z,11.27
2019-04-07T01:50:58.179Z,11.37
2019-04-07T01:53:53.192Z,11.29
2019-04-07T01:56:50.090Z,11.33
2019-04-07T01:59:44.346Z,11.25
2019-04-07T02:02:45.506Z,11.30
2019-04-07T02:05:58.664Z,11.32
2019-04-07T02:08:46.374Z,11.30
2019-04-07T02:11:49.583Z,11.27
2019-04-07T02:14:40.947Z,11.19
2019-04-07T02:17:50.657Z,11.22
2019-04-07T02:21:14.313Z,11.21
2019-04-07T02:24:10.219Z,11.09
2019-04-07T02:27:02.886Z,11.12
2019-04-07T02:30:14.759Z,11.13
2019-04-07T02:33:08.511Z,10.94
2019-04-07T02:36:16.039Z,10.92
2019-04-07T02:38:50.438Z,10.88
2019-04-07T02:41:35.094Z,10.87
2019-04-07T02:44:31.991Z,10.83
2019-04-07T02:47:18.695Z,10.88
2019-04-07T02:50:10.766Z,10.82
2019-04-07T02:52:58.041Z,10.88
2019-04-07T02:55:52.587Z,10.86
2019-04-07T02:59:04.736Z,10.88
2019-04-07T03:01:53.121Z,10.89
2019-04-07T03:04:46.088Z,10.86
2019-04-07T03:07:43.118Z,10.88
2019-04-07T03:10:37.107Z,10.81
2019-04-07T03:13:46.514Z,10.85
2019-04-07T03:16:31.013Z,10.72
2019-04-07T03:19:15.151Z,10.67
2019-04-07T03:22:18.265Z,10.72
2019-04-07T03:25:18.484Z,10.70
2019-04-07T03:28:10.301Z,10.72
2019-04-07T03:31:14.746Z,10.65
2019-04-07T03:34:18.457Z,10.69
2019-04-07T03:37:25.635Z,10.67
2019-04-07T03:40:11.629Z,10.61
2019-04-07T03:43:23.952Z,10.62
2019-04-07T03:46:07.954Z,10.54
2019-04-07T03:48:48.221Z,10.40
2019-04-07T03:51:54.497Z,10.47
2019-04-07T03:54:50.935Z,10.41
2019-04-07T03:58:03.689Z,10.38
2019-04-07T04:01:37.126Z,10.47
2019-04-07T04:04:30.030Z,10.33
2019-04-07T04:07:31.304Z,10.37
2019-04-07T04:10:09.867Z,10.28
2019-04-07T04:13:02.302Z,10.19
2019-04-07T04:16:06.229Z,10.17
2019-04-07T04:18:42.614Z,10.25
2019-04-07T04:21:17.847Z,10.17
2019-04-07T04:23:53.090Z,10.05
2019-04-07T04:26:29.162Z,10.08
2019-04-07T04:29:05.783Z,10.08
2019-04-07T04:31:43.423Z,10.05
2019-04-07T04:34:19.175Z,10.10
2019-04-07T04:36:54.569Z,10.04
2019-04-07T04:39:29.705Z,10.06
2019-04-07T04:42:05.478Z,10.03
2019-04-07T04:44:41.018Z,10.03
2019-04-07T04:47:18.999Z,10.03
2019-04-07T04:49:56.190Z,9.96
2019-04-07T04:52:31.924Z,10.08
2019-04-07T04:55:07.414Z,9.99
2019-04-07T04:57:42.626Z,10.01
2019-04-07T05:00:20.239Z,10.00
2019-04-07T05:02:56.041Z,9.94
2019-04-07T05:05:31.121Z,10.01
2019-04-07T05:08:06.838Z,10.01
2019-04-07T05:10:41.993Z,9.97
2019-04-07T05:13:17.041Z,9.95
2019-04-07T05:15:52.197Z,9.89
2019-04-07T05:18:27.744Z,9.94
2019-04-07T05:21:03.130Z,10.06
2019-04-07T05:23:38.566Z,10.07
2019-04-07T05:26:13.740Z,10.05
2019-04-07T05:28:50.418Z,10.13
2019-04-07T05:31:25.860Z,10.20
2019-04-07T05:34:01.793Z,10.20
2019-04-07T05:36:36.976Z,10.30
2019-04-07T05:39:12.763Z,10.30
2019-04-07T05:41:48.341Z,10.41
2019-04-07T05:44:24.382Z,10.49
2019-04-07T05:47:03.570Z,10.51
2019-04-07T05:49:38.921Z,10.57
2019-04-07T05:52:14.951Z,10.57
2019-04-07T05:54:52.437Z,10.55
2019-04-07T05:57:30.873Z,10.78
2019-04-07T06:00:06.573Z,10.85
2019-04-07T06:02:42.824Z,10.97
2019-04-07T06:05:18.738Z,11.08
2019-04-07T06:07:54.503Z,11.08
2019-04-07T06:10:30.006Z,11.24
2019-04-07T06:13:06.094Z,11.19
2019-04-07T06:15:41.219Z,11.24
2019-04-07T06:18:16.357Z,11.39
2019-04-07T06:20:52.030Z,11.58
2019-04-07T06:23:29.493Z,11.61
2019-04-07T06:26:08.898Z,11.67
2019-04-07T06:28:41.283Z,11.63
2019-04-07T06:31:17.377Z,11.69
2019-04-07T06:33:55.038Z,11.80
2019-04-07T06:36:29.666Z,11.76
2019-04-07T06:39:08.257Z,11.91
2019-04-07T06:41:44.351Z,11.87
2019-04-07T06:44:22.173Z,12.14
2019-04-07T06:47:16.724Z,12.26
2019-04-07T06:50:18.988Z,12.36
2019-04-07T06:53:17.325Z,12.35
2019-04-07T06:56:03.881Z,12.33
2019-04-07T06:58:56.552Z,12.50
2019-04-07T07:01:39.714Z,12.59
2019-04-07T07:04:35.556Z,12.65
2019-04-07T07:07:20.683Z,12.63
2019-04-07T07:10:09.474Z,12.84
2019-04-07T07:13:07.518Z,12.92
2019-04-07T07:15:56.265Z,12.93
2019-04-07T07:18:40.332Z,12.89
2019-04-07T07:21:46.812Z,13.00
2019-04-07T07:24:25.101Z,13.12
2019-04-07T07:26:58.723Z,13.05
2019-04-07T07:29:35.281Z,13.11
2019-04-07T07:32:10.354Z,13.07
2019-04-07T07:34:48.680Z,13.17
2019-04-07T07:37:26.150Z,13.36
2019-04-07T07:40:02.253Z,13.38
2019-04-07T07:42:37.953Z,13.43
2019-04-07T07:45:14.026Z,13.54
2019-04-07T07:47:53.229Z,13.66
2019-04-07T07:50:26.645Z,13.80
2019-04-07T07:53:02.584Z,13.93
2019-04-07T07:55:38.574Z,14.14
2019-04-07T07:58:14.015Z,14.15
2019-04-07T08:00:50.610Z,14.29
2019-04-07T08:03:27.267Z,14.22
2019-04-07T08:06:06.366Z,14.29
2019-04-07T08:08:39.632Z,14.44
2019-04-07T08:11:17.521Z,14.65
2019-04-07T08:13:53.595Z,14.58
2019-04-07T08:16:31.071Z,14.63
2019-04-07T08:19:09.259Z,14.77
2019-04-07T08:21:45.419Z,14.87
2019-04-07T08:24:21.834Z,15.05
2019-04-07T08:26:58.857Z,15.08
2019-04-07T08:29:37.143Z,15.21
2019-04-07T08:32:12.154Z,15.40
2019-04-07T08:34:47.346Z,15.53
2019-04-07T08:37:23.342Z,15.67
2019-04-07T08:39:59.387Z,15.81
2019-04-07T08:42:34.720Z,16.03
2019-04-07T08:45:10.093Z,15.98
2019-04-07T08:47:47.355Z,16.08
2019-04-07T08:50:27.720Z,16.39
2019-04-07T08:53:02.127Z,16.42
2019-04-07T08:55:37.276Z,16.60
2019-04-07T08:58:23.603Z,16.83
2019-04-07T09:00:53.067Z,16.86
2019-04-07T09:03:30.554Z,16.91
2019-04-07T09:06:06.266Z,16.94
2019-04-07T09:08:41.645Z,17.06
2019-04-07T09:11:21.659Z,17.16
2019-04-07T09:13:56.937Z,17.35
2019-04-07T09:16:39.484Z,17.28
2019-04-07T09:19:36.808Z,17.56
2019-04-07T09:22:29.820Z,17.66
2019-04-07T09:25:39.992Z,17.82
2019-04-07T09:28:23.997Z,17.90
2019-04-07T09:31:23.313Z,18.03
2019-04-07T09:34:30.260Z,18.20
2019-04-07T09:37:31.026Z,18.34
2019-04-07T09:40:32.862Z,18.43
2019-04-07T09:43:19.937Z,18.61
2019-04-07T09:46:16.608Z,18.75
2019-04-07T09:49:13.529Z,18.38
2019-04-07T09:52:03.470Z,18.92
2019-04-07T09:55:01.257Z,18.92
2019-04-07T09:57:46.145Z,19.05
2019-04-07T10:00:45.441Z,19.29
2019-04-07T10:03:46.378Z,19.40
2019-04-07T10:06:32.351Z,19.36
2019-04-07T10:09:25.675Z,19.64
2019-04-07T10:12:38.120Z,19.72
2019-04-07T10:15:32.845Z,19.77
2019-04-07T10:18:34.054Z,19.77
2019-04-07T10:21:28.621Z,20.00
2019-04-07T10:24:32.540Z,19.88
2019-04-07T10:27:37.092Z,20.06
2019-04-07T10:30:27.688Z,19.97
2019-04-07T10:33:38.106Z,20.41
2019-04-07T10:36:42.355Z,20.30
2019-04-07T10:39:29.426Z,20.68
2019-04-07T10:42:35.913Z,20.59
2019-04-07T10:45:29.643Z,20.69
2019-04-07T10:48:24.858Z,20.91
2019-04-07T10:51:42.807Z,20.98
2019-04-07T10:54:47.266Z,21.19
2019-04-07T10:57:39.972Z,21.34
2019-04-07T11:00:33.430Z,21.78
2019-04-07T11:03:30.031Z,21.83
2019-04-07T11:06:24.758Z,22.00
2019-04-07T11:09:21.154Z,21.95
2019-04-07T11:12:23.564Z,22.12
2019-04-07T11:15:20.316Z,22.31
2019-04-07T11:18:19.056Z,22.33
2019-04-07T11:21:06.498Z,22.61
2019-04-07T11:23:55.511Z,23.03
2019-04-07T11:26:48.592Z,23.08
2019-04-07T11:29:49.647Z,23.58
2019-04-07T11:32:51.253Z,24.11
2019-04-07T11:35:36.925Z,23.86
2019-04-07T11:38:49.487Z,23.55
2019-04-07T11:41:31.673Z,23.13
2019-04-07T11:44:13.866Z,23.20
2019-04-07T11:47:14.237Z,23.67
2019-04-07T11:50:08.190Z,23.65
2019-04-07T11:52:49.383Z,23.94
2019-04-07T11:55:35.526Z,24.62
2019-04-07T11:58:45.162Z,24.85
2019-04-07T12:01:39.476Z,24.86
2019-04-07T12:04:48.993Z,25.26
2019-04-07T12:07:41.364Z,25.11
2019-04-07T12:10:53.504Z,25.74
2019-04-07T12:13:42.943Z,24.65
2019-04-07T12:16:35.000Z,23.57
2019-04-07T12:19:32.218Z,23.72
2019-04-07T12:22:18.296Z,23.90
2019-04-07T12:25:13.138Z,24.40
2019-04-07T12:28:15.869Z,25.66
2019-04-07T12:31:00.363Z,26.12
2019-04-07T12:36:52.991Z,26.13
2019-04-07T12:39:36.100Z,26.55
2019-04-07T12:42:20.327Z,26.90
2019-04-07T12:45:13.457Z,26.13
2019-04-07T12:48:19.708Z,26.89
2019-04-07T12:51:17.590Z,27.04
2019-04-07T12:54:11.788Z,27.21
2019-04-07T12:57:06.178Z,28.56
2019-04-07T12:59:56.116Z,28.12
2019-04-07T13:02:53.241Z,27.89
2019-04-07T13:05:36.646Z,28.05
2019-04-07T13:08:32.142Z,28.47
2019-04-07T13:11:25.456Z,28.64
2019-04-07T13:14:15.174Z,28.20
2019-04-07T13:17:01.701Z,28.86
2019-04-07T13:19:55.262Z,29.32
2019-04-07T13:23:01.940Z,29.95
2019-04-07T13:25:43.946Z,28.96
2019-04-07T13:28:41.783Z,29.95
2019-04-07T13:31:25.769Z,30.42
2019-04-07T13:34:20.025Z,30.71
2019-04-07T13:37:18.813Z,30.36
2019-04-07T13:40:12.973Z,30.68
2019-04-07T13:43:09.950Z,30.00
2019-04-07T13:45:55.831Z,30.05
2019-04-07T13:48:53.677Z,29.09
2019-04-07T13:54:56.915Z,29.46
2019-04-07T13:57:44.062Z,30.31
2019-04-07T14:00:42.945Z,30.17
2019-04-07T14:03:41.726Z,30.68
2019-04-07T14:06:46.463Z,31.41
2019-04-07T14:09:34.149Z,31.11
2019-04-07T14:12:23.780Z,30.65
2019-04-07T14:15:21.619Z,29.86
2019-04-07T14:18:11.302Z,30.80
2019-04-07T14:20:56.203Z,31.41
2019-04-07T14:24:02.533Z,31.76
2019-04-07T14:27:04.378Z,30.90
2019-04-07T14:29:55.917Z,31.56
2019-04-07T14:32:54.670Z,30.74
2019-04-07T14:35:39.058Z,31.80
2019-04-07T14:38:45.563Z,31.92
2019-04-07T14:41:31.259Z,31.04
2019-04-07T14:44:25.815Z,32.06
2019-04-07T14:47:21.901Z,31.86
2019-04-07T14:50:19.009Z,31.66
2019-04-07T14:53:13.252Z,32.34
2019-04-07T14:55:58.253Z,32.53
2019-04-07T14:58:53.769Z,32.61
2019-04-07T15:01:46.899Z,31.73
2019-04-07T15:04:29.129Z,31.35
2019-04-07T15:07:16.135Z,32.03
2019-04-07T15:09:59.828Z,31.65
2019-04-07T15:12:42.525Z,31.64
2019-04-07T15:15:17.639Z,30.76
2019-04-07T15:17:53.078Z,30.99
2019-04-07T15:20:28.285Z,30.57
2019-04-07T15:23:07.441Z,30.83
2019-04-07T15:25:45.784Z,30.55
2019-04-07T15:28:19.740Z,30.15
2019-04-07T15:30:55.611Z,30.60
2019-04-07T15:33:33.620Z,30.33
2019-04-07T15:36:09.126Z,30.53
2019-04-07T15:38:46.433Z,31.42
2019-04-07T15:41:22.236Z,30.28
2019-04-07T15:43:58.501Z,30.58
2019-04-07T15:46:35.458Z,31.15
2019-04-07T15:49:12.671Z,30.35
2019-04-07T15:51:48.783Z,30.01
2019-04-07T15:54:25.407Z,30.78
2019-04-07T15:57:00.793Z,29.59
2019-04-07T15:59:35.943Z,29.74
2019-04-07T16:02:12.158Z,30.29
2019-04-07T16:04:48.091Z,30.48
2019-04-07T16:07:23.717Z,29.13
2019-04-07T16:09:59.742Z,29.30
2019-04-07T16:12:44.911Z,29.68
2019-04-07T16:15:18.128Z,29.41
2019-04-07T16:17:53.243Z,29.37
2019-04-07T16:20:32.417Z,29.13
2019-04-07T16:23:05.503Z,29.94
2019-04-07T16:25:41.836Z,30.22
2019-04-07T16:28:18.817Z,29.97
2019-04-07T16:30:54.267Z,29.69
2019-04-07T16:33:34.103Z,29.67
2019-04-07T16:36:08.662Z,29.58
2019-04-07T16:38:44.354Z,29.78
2019-04-07T16:41:20.023Z,28.80
2019-04-07T16:43:55.098Z,29.50
2019-04-07T16:46:30.485Z,29.65
2019-04-07T16:49:11.506Z,30.11
2019-04-07T16:51:47.318Z,29.33
2019-04-07T16:54:23.387Z,29.79
2019-04-07T16:56:59.403Z,28.93
2019-04-07T16:59:40.733Z,28.51
2019-04-07T17:02:15.637Z,28.03
2019-04-07T17:04:51.521Z,26.86
2019-04-07T17:07:26.651Z,26.63
2019-04-07T17:10:03.493Z,25.56
2019-04-07T17:12:40.616Z,25.15
2019-04-07T17:15:15.790Z,24.48
2019-04-07T17:17:52.477Z,24.02
2019-04-07T17:20:33.375Z,23.20
2019-04-07T17:23:11.160Z,22.86
2019-04-07T17:25:47.086Z,22.77
2019-04-07T17:28:23.824Z,22.69
2019-04-07T17:30:59.923Z,22.08
2019-04-07T17:33:37.918Z,21.94
2019-04-07T17:36:17.576Z,21.89
2019-04-07T17:39:16.389Z,21.49
2019-04-07T17:41:52.005Z,21.32
2019-04-07T17:44:35.050Z,21.13
2019-04-07T17:47:35.460Z,20.84
2019-04-07T17:50:31.525Z,20.74
2019-04-07T17:53:28.577Z,20.32
2019-04-07T17:56:22.231Z,20.22
2019-04-07T17:59:17.137Z,20.01
2019-04-07T18:02:17.401Z,20.04
2019-04-07T18:05:10.620Z,19.68
2019-04-07T18:08:13.375Z,19.38
2019-04-07T18:11:17.657Z,19.16
2019-04-07T18:14:03.700Z,19.06
2019-04-07T18:17:04.695Z,18.95
2019-04-07T18:20:14.077Z,18.97
2019-04-07T18:23:13.729Z,18.83
2019-04-07T18:25:54.476Z,18.72
2019-04-07T18:28:34.913Z,18.56
2019-04-07T18:31:24.519Z,18.49
2019-04-07T18:34:27.279Z,18.48
2019-04-07T18:37:19.162Z,18.21
2019-04-07T18:40:11.995Z,17.99
2019-04-07T18:43:06.324Z,18.03
2019-04-07T18:45:52.642Z,17.87
2019-04-07T18:48:46.271Z,17.82
2019-04-07T18:51:37.121Z,17.91
2019-04-07T18:54:26.887Z,17.63
2019-04-07T18:57:21.725Z,17.59
2019-04-07T19:00:19.953Z,17.58
2019-04-07T19:03:18.506Z,17.52
2019-04-07T19:06:22.022Z,17.38
2019-04-07T19:09:11.166Z,17.24
2019-04-07T19:12:13.504Z,17.29
2019-04-07T19:15:23.700Z,17.15
2019-04-07T19:18:27.251Z,17.07
2019-04-07T19:21:31.925Z,17.03
2019-04-07T19:24:47.568Z,17.03
2019-04-07T19:27:46.489Z,16.77
2019-04-07T19:30:43.636Z,16.64
2019-04-07T19:33:42.148Z,16.51
2019-04-07T19:36:44.410Z,16.53
2019-04-07T19:39:26.357Z,16.38
2019-04-07T19:42:21.881Z,16.30
2019-04-07T19:45:05.878Z,16.21
2019-04-07T19:48:10.078Z,15.98
2019-04-07T19:51:01.923Z,16.14
2019-04-07T19:54:13.556Z,16.02
2019-04-07T19:57:06.597Z,15.86
2019-04-07T19:59:52.770Z,15.88
2019-04-07T20:03:07.665Z,15.72
2019-04-07T20:06:12.937Z,15.84
2019-04-07T20:09:13.034Z,15.68
2019-04-07T20:12:22.048Z,15.59
2019-04-07T20:15:17.620Z,15.56
2019-04-07T20:18:08.524Z,15.59
2019-04-07T20:20:57.506Z,15.57
2019-04-07T20:23:50.116Z,15.53
2019-04-07T20:26:56.726Z,15.48
2019-04-07T20:29:47.771Z,15.38
2019-04-07T20:32:41.011Z,15.52
2019-04-07T20:35:35.006Z,15.57
2019-04-07T20:38:28.947Z,15.46
2019-04-07T20:41:33.760Z,15.45
2019-04-07T20:44:33.908Z,15.43
2019-04-07T20:47:36.171Z,15.35
2019-04-07T20:50:22.524Z,15.33
2019-04-07T20:53:28.297Z,15.21
2019-04-07T20:56:14.400Z,15.24
2019-04-07T20:59:08.483Z,15.09
2019-04-07T21:02:05.545Z,15.09
2019-04-07T21:04:45.215Z,15.05
2019-04-07T21:07:47.073Z,14.94
2019-04-07T21:10:50.708Z,14.87
2019-04-07T21:13:43.044Z,14.82
2019-04-07T21:16:38.005Z,14.72
2019-04-07T21:19:23.296Z,14.67
2019-04-07T21:22:16.961Z,14.65
2019-04-07T21:25:09.798Z,14.70
2019-04-07T21:27:49.254Z,14.63
2019-04-07T21:30:47.056Z,14.59
2019-04-07T21:33:44.232Z,14.53
2019-04-07T21:36:41.721Z,14.37
2019-04-07T21:39:39.704Z,14.37
2019-04-07T21:42:27.395Z,14.35
2019-04-07T21:45:32.543Z,14.39
2019-04-07T21:48:23.886Z,14.17
2019-04-07T21:51:33.258Z,14.13
2019-04-07T21:54:30.731Z,14.22
2019-04-07T21:57:26.971Z,14.11
2019-04-07T22:00:21.169Z,14.11
2019-04-07T22:03:22.564Z,13.92
2019-04-07T22:06:14.892Z,14.05
2019-04-07T22:08:54.279Z,14.00
2019-04-07T22:11:30.453Z,13.83
2019-04-07T22:14:07.685Z,13.82
2019-04-07T22:16:43.868Z,13.72
2019-04-07T22:19:19.078Z,13.71
2019-04-07T22:21:56.573Z,13.59
2019-04-07T22:24:35.861Z,13.47
2019-04-07T22:27:09.544Z,13.23
2019-04-07T22:29:46.967Z,13.27
2019-04-07T22:32:24.088Z,13.17
2019-04-07T22:35:02.644Z,13.08
2019-04-07T22:37:38.089Z,13.15
2019-04-07T22:40:19.380Z,13.00
2019-04-07T22:42:54.600Z,12.71
2019-04-07T22:45:31.139Z,12.78
2019-04-07T22:48:08.226Z,12.74
2019-04-07T22:50:43.683Z,12.55
2019-04-07T22:53:22.442Z,12.40
2019-04-07T22:55:57.470Z,12.41
2019-04-07T22:58:34.366Z,12.26
2019-04-07T23:01:09.498Z,12.16
2019-04-07T23:03:46.342Z,12.13
2019-04-07T23:06:21.529Z,12.02
2019-04-07T23:08:57.349Z,11.91
2019-04-07T23:11:32.978Z,11.94
2019-04-07T23:14:09.454Z,11.88
2019-04-07T23:16:44.752Z,11.74
2019-04-07T23:19:19.866Z,11.68
2019-04-07T23:21:58.764Z,11.69
2019-04-07T23:24:34.955Z,11.51
2019-04-07T23:27:10.417Z,11.47
2019-04-07T23:29:46.384Z,11.53
2019-04-07T23:32:22.058Z,11.45
2019-04-07T23:34:57.648Z,11.32
2019-04-07T23:37:33.661Z,11.26
2019-04-07T23:40:10.655Z,11.15
2019-04-07T23:42:46.676Z,11.31
2019-04-07T23:45:25.338Z,11.13
2019-04-07T23:48:00.484Z,11.32
2019-04-07T23:50:39.575Z,11.06
2019-04-07T23:54:09.448Z,11.09
2019-04-07T23:56:47.563Z,11.02
2019-04-07T23:59:22.928Z,10.92
